sensor_id;sensor_type;location;lat;lon;timestamp;P1;durP1;ratioP1;P2;durP2;ratioP2
4986;SDS011;12674;51.500;7.552;2023-08-06T00:01:17;6.22;;;3.63;;
4986;SDS011;12674;51.500;7.552;2023-08-06T00:03:23;3.42;;;3.00;;
4986;SDS011;12674;51.500;7.552;2023-08-06T00:05:26;4.50;;;3.20;;
4986;SDS011;12674;51.500;7.552;2023-08-06T00:07:29;4.78;;;3.30;;
4986;SDS011;12674;51.500;7.552;2023-08-06T00:09:31;10.85;;;4.55;;
4986;SDS011;12674;51.500;7.552;2023-08-06T00:11:34;7.97;;;3.38;;
4986;SDS011;12674;51.500;7.552;2023-08-06T00:13:37;5.35;;;3.25;;
4986;SDS011;12674;51.500;7.552;2023-08-06T00:15:40;4.80;;;3.22;;
4986;SDS011;12674;51.500;7.552;2023-08-06T00:17:45;5.72;;;2.97;;
4986;SDS011;12674;51.500;7.552;2023-08-06T00:19:48;5.55;;;2.85;;
4986;SDS011;12674;51.500;7.552;2023-08-06T00:21:51;5.75;;;2.47;;
4986;SDS011;12674;51.500;7.552;2023-08-06T00:23:54;3.17;;;2.80;;
4986;SDS011;12674;51.500;7.552;2023-08-06T00:25:57;9.10;;;3.53;;
4986;SDS011;12674;51.500;7.552;2023-08-06T00:28:00;10.63;;;3.33;;
4986;SDS011;12674;51.500;7.552;2023-08-06T00:30:03;7.88;;;3.28;;
4986;SDS011;12674;51.500;7.552;2023-08-06T00:32:07;15.13;;;3.05;;
4986;SDS011;12674;51.500;7.552;2023-08-06T00:34:11;3.53;;;3.00;;
4986;SDS011;12674;51.500;7.552;2023-08-06T00:36:14;8.90;;;2.92;;
4986;SDS011;12674;51.500;7.552;2023-08-06T00:38:17;7.38;;;3.05;;
4986;SDS011;12674;51.500;7.552;2023-08-06T00:40:20;11.07;;;3.05;;
4986;SDS011;12674;51.500;7.552;2023-08-06T00:42:24;3.88;;;3.22;;
4986;SDS011;12674;51.500;7.552;2023-08-06T00:44:27;3.40;;;3.10;;
4986;SDS011;12674;51.500;7.552;2023-08-06T00:46:29;5.03;;;3.10;;
4986;SDS011;12674;51.500;7.552;2023-08-06T00:48:33;24.70;;;3.55;;
4986;SDS011;12674;51.500;7.552;2023-08-06T00:50:36;3.97;;;3.03;;
4986;SDS011;12674;51.500;7.552;2023-08-06T00:52:39;10.15;;;3.53;;
4986;SDS011;12674;51.500;7.552;2023-08-06T00:54:42;7.93;;;3.13;;
4986;SDS011;12674;51.500;7.552;2023-08-06T00:56:45;10.63;;;3.75;;
4986;SDS011;12674;51.500;7.552;2023-08-06T00:58:48;6.88;;;3.08;;
4986;SDS011;12674;51.500;7.552;2023-08-06T01:00:51;9.15;;;3.50;;
4986;SDS011;12674;51.500;7.552;2023-08-06T01:02:54;3.78;;;3.03;;
4986;SDS011;12674;51.500;7.552;2023-08-06T01:04:57;6.03;;;3.40;;
4986;SDS011;12674;51.500;7.552;2023-08-06T01:07:04;8.05;;;3.13;;
4986;SDS011;12674;51.500;7.552;2023-08-06T01:09:23;3.33;;;3.03;;
4986;SDS011;12674;51.500;7.552;2023-08-06T01:11:33;7.88;;;3.35;;
4986;SDS011;12674;51.500;7.552;2023-08-06T01:13:41;5.13;;;2.50;;
4986;SDS011;12674;51.500;7.552;2023-08-06T01:15:46;20.13;;;3.65;;
4986;SDS011;12674;51.500;7.552;2023-08-06T01:17:49;5.25;;;2.85;;
4986;SDS011;12674;51.500;7.552;2023-08-06T01:19:52;4.65;;;3.10;;
4986;SDS011;12674;51.500;7.552;2023-08-06T01:21:57;5.13;;;2.92;;
4986;SDS011;12674;51.500;7.552;2023-08-06T01:23:59;7.72;;;3.13;;
4986;SDS011;12674;51.500;7.552;2023-08-06T01:26:03;8.30;;;3.25;;
4986;SDS011;12674;51.500;7.552;2023-08-06T01:28:13;6.93;;;3.35;;
4986;SDS011;12674;51.500;7.552;2023-08-06T01:30:19;15.05;;;3.20;;
4986;SDS011;12674;51.500;7.552;2023-08-06T01:32:24;3.13;;;2.88;;
4986;SDS011;12674;51.500;7.552;2023-08-06T01:34:27;7.90;;;3.38;;
4986;SDS011;12674;51.500;7.552;2023-08-06T01:36:31;4.05;;;2.80;;
4986;SDS011;12674;51.500;7.552;2023-08-06T01:38:35;2.90;;;2.70;;
4986;SDS011;12674;51.500;7.552;2023-08-06T01:40:38;4.38;;;2.95;;
4986;SDS011;12674;51.500;7.552;2023-08-06T01:42:41;8.00;;;3.33;;
4986;SDS011;12674;51.500;7.552;2023-08-06T01:44:44;3.38;;;2.50;;
4986;SDS011;12674;51.500;7.552;2023-08-06T01:46:47;12.93;;;3.47;;
4986;SDS011;12674;51.500;7.552;2023-08-06T01:48:50;13.80;;;3.45;;
4986;SDS011;12674;51.500;7.552;2023-08-06T01:50:53;4.15;;;2.88;;
4986;SDS011;12674;51.500;7.552;2023-08-06T01:52:56;5.43;;;3.13;;
4986;SDS011;12674;51.500;7.552;2023-08-06T01:55:02;5.88;;;3.00;;
4986;SDS011;12674;51.500;7.552;2023-08-06T01:57:06;6.25;;;2.97;;
4986;SDS011;12674;51.500;7.552;2023-08-06T01:59:09;4.63;;;3.33;;
4986;SDS011;12674;51.500;7.552;2023-08-06T02:01:12;5.03;;;3.63;;
4986;SDS011;12674;51.500;7.552;2023-08-06T02:03:15;5.82;;;3.33;;
4986;SDS011;12674;51.500;7.552;2023-08-06T02:05:18;7.93;;;3.80;;
4986;SDS011;12674;51.500;7.552;2023-08-06T02:07:21;8.10;;;3.70;;
4986;SDS011;12674;51.500;7.552;2023-08-06T02:09:24;9.27;;;3.50;;
4986;SDS011;12674;51.500;7.552;2023-08-06T02:11:28;4.32;;;3.30;;
4986;SDS011;12674;51.500;7.552;2023-08-06T02:13:32;7.93;;;3.17;;
4986;SDS011;12674;51.500;7.552;2023-08-06T02:15:35;6.13;;;3.28;;
4986;SDS011;12674;51.500;7.552;2023-08-06T02:17:38;9.80;;;3.90;;
4986;SDS011;12674;51.500;7.552;2023-08-06T02:19:41;4.63;;;3.13;;
4986;SDS011;12674;51.500;7.552;2023-08-06T02:21:44;4.97;;;3.30;;
4986;SDS011;12674;51.500;7.552;2023-08-06T02:23:47;8.52;;;3.00;;
4986;SDS011;12674;51.500;7.552;2023-08-06T02:25:56;7.65;;;3.67;;
4986;SDS011;12674;51.500;7.552;2023-08-06T02:28:01;4.78;;;3.65;;
4986;SDS011;12674;51.500;7.552;2023-08-06T02:30:06;3.65;;;3.20;;
4986;SDS011;12674;51.500;7.552;2023-08-06T02:32:09;4.55;;;3.65;;
4986;SDS011;12674;51.500;7.552;2023-08-06T02:34:12;8.65;;;3.50;;
4986;SDS011;12674;51.500;7.552;2023-08-06T02:36:16;4.90;;;3.63;;
4986;SDS011;12674;51.500;7.552;2023-08-06T02:38:19;7.57;;;3.45;;
4986;SDS011;12674;51.500;7.552;2023-08-06T02:40:22;5.03;;;3.70;;
4986;SDS011;12674;51.500;7.552;2023-08-06T02:42:24;6.40;;;2.92;;
4986;SDS011;12674;51.500;7.552;2023-08-06T02:44:30;3.65;;;3.35;;
4986;SDS011;12674;51.500;7.552;2023-08-06T02:46:33;9.30;;;3.88;;
4986;SDS011;12674;51.500;7.552;2023-08-06T02:48:36;4.60;;;3.45;;
4986;SDS011;12674;51.500;7.552;2023-08-06T02:50:39;4.40;;;2.95;;
4986;SDS011;12674;51.500;7.552;2023-08-06T02:52:41;5.70;;;3.10;;
4986;SDS011;12674;51.500;7.552;2023-08-06T02:54:44;4.32;;;3.35;;
4986;SDS011;12674;51.500;7.552;2023-08-06T02:56:49;5.97;;;3.83;;
4986;SDS011;12674;51.500;7.552;2023-08-06T02:58:58;8.35;;;2.97;;
4986;SDS011;12674;51.500;7.552;2023-08-06T03:01:29;4.22;;;3.25;;
4986;SDS011;12674;51.500;7.552;2023-08-06T03:03:39;4.22;;;3.15;;
4986;SDS011;12674;51.500;7.552;2023-08-06T03:05:50;3.42;;;2.88;;
4986;SDS011;12674;51.500;7.552;2023-08-06T03:08:01;3.72;;;3.30;;
4986;SDS011;12674;51.500;7.552;2023-08-06T03:10:05;4.78;;;2.67;;
4986;SDS011;12674;51.500;7.552;2023-08-06T03:12:09;7.55;;;3.28;;
4986;SDS011;12674;51.500;7.552;2023-08-06T03:14:13;8.20;;;3.28;;
4986;SDS011;12674;51.500;7.552;2023-08-06T03:16:17;4.85;;;3.00;;
4986;SDS011;12674;51.500;7.552;2023-08-06T03:18:22;4.05;;;2.67;;
4986;SDS011;12674;51.500;7.552;2023-08-06T03:20:27;4.07;;;3.33;;
4986;SDS011;12674;51.500;7.552;2023-08-06T03:22:30;4.90;;;3.50;;
4986;SDS011;12674;51.500;7.552;2023-08-06T03:24:34;4.07;;;3.15;;
4986;SDS011;12674;51.500;7.552;2023-08-06T03:26:37;4.65;;;3.38;;
4986;SDS011;12674;51.500;7.552;2023-08-06T03:28:40;5.07;;;3.25;;
4986;SDS011;12674;51.500;7.552;2023-08-06T03:30:44;5.30;;;3.00;;
4986;SDS011;12674;51.500;7.552;2023-08-06T03:32:48;9.48;;;2.92;;
4986;SDS011;12674;51.500;7.552;2023-08-06T03:34:55;4.35;;;3.80;;
4986;SDS011;12674;51.500;7.552;2023-08-06T03:37:02;6.10;;;3.75;;
4986;SDS011;12674;51.500;7.552;2023-08-06T03:39:05;9.90;;;3.15;;
4986;SDS011;12674;51.500;7.552;2023-08-06T03:41:08;10.27;;;3.22;;
4986;SDS011;12674;51.500;7.552;2023-08-06T03:43:12;5.72;;;3.28;;
4986;SDS011;12674;51.500;7.552;2023-08-06T03:45:15;5.07;;;3.40;;
4986;SDS011;12674;51.500;7.552;2023-08-06T03:47:19;6.53;;;3.60;;
4986;SDS011;12674;51.500;7.552;2023-08-06T03:49:24;9.57;;;4.07;;
4986;SDS011;12674;51.500;7.552;2023-08-06T03:51:29;7.90;;;4.00;;
4986;SDS011;12674;51.500;7.552;2023-08-06T03:53:32;4.95;;;3.80;;
4986;SDS011;12674;51.500;7.552;2023-08-06T03:55:36;6.95;;;3.72;;
4986;SDS011;12674;51.500;7.552;2023-08-06T03:57:38;5.93;;;3.97;;
4986;SDS011;12674;51.500;7.552;2023-08-06T03:59:42;3.70;;;3.40;;
4986;SDS011;12674;51.500;7.552;2023-08-06T04:01:58;6.82;;;3.17;;
4986;SDS011;12674;51.500;7.552;2023-08-06T04:04:00;4.78;;;3.53;;
4986;SDS011;12674;51.500;7.552;2023-08-06T04:06:04;7.60;;;3.20;;
4986;SDS011;12674;51.500;7.552;2023-08-06T04:08:08;5.45;;;3.40;;
4986;SDS011;12674;51.500;7.552;2023-08-06T04:10:11;6.30;;;3.45;;
4986;SDS011;12674;51.500;7.552;2023-08-06T04:12:14;3.83;;;3.42;;
4986;SDS011;12674;51.500;7.552;2023-08-06T04:14:17;9.80;;;3.55;;
4986;SDS011;12674;51.500;7.552;2023-08-06T04:16:20;9.98;;;4.47;;
4986;SDS011;12674;51.500;7.552;2023-08-06T04:18:22;22.13;;;4.25;;
4986;SDS011;12674;51.500;7.552;2023-08-06T04:20:27;8.85;;;2.80;;
4986;SDS011;12674;51.500;7.552;2023-08-06T04:22:30;4.50;;;3.92;;
4986;SDS011;12674;51.500;7.552;2023-08-06T04:24:34;6.55;;;3.45;;
4986;SDS011;12674;51.500;7.552;2023-08-06T04:26:37;4.65;;;3.35;;
4986;SDS011;12674;51.500;7.552;2023-08-06T04:28:41;3.58;;;3.28;;
4986;SDS011;12674;51.500;7.552;2023-08-06T04:30:44;5.20;;;3.80;;
4986;SDS011;12674;51.500;7.552;2023-08-06T04:32:49;8.02;;;3.45;;
4986;SDS011;12674;51.500;7.552;2023-08-06T04:34:52;7.63;;;3.35;;
4986;SDS011;12674;51.500;7.552;2023-08-06T04:36:55;4.70;;;3.85;;
4986;SDS011;12674;51.500;7.552;2023-08-06T04:38:58;3.50;;;3.10;;
4986;SDS011;12674;51.500;7.552;2023-08-06T04:41:03;3.78;;;3.42;;
4986;SDS011;12674;51.500;7.552;2023-08-06T04:43:06;10.15;;;3.83;;
4986;SDS011;12674;51.500;7.552;2023-08-06T04:45:09;4.45;;;4.07;;
4986;SDS011;12674;51.500;7.552;2023-08-06T04:47:13;5.15;;;3.70;;
4986;SDS011;12674;51.500;7.552;2023-08-06T04:49:16;5.95;;;3.72;;
4986;SDS011;12674;51.500;7.552;2023-08-06T04:51:20;5.93;;;3.85;;
4986;SDS011;12674;51.500;7.552;2023-08-06T04:53:23;7.05;;;3.78;;
4986;SDS011;12674;51.500;7.552;2023-08-06T04:55:24;6.57;;;3.42;;
4986;SDS011;12674;51.500;7.552;2023-08-06T04:57:29;3.60;;;3.40;;
4986;SDS011;12674;51.500;7.552;2023-08-06T04:59:32;5.68;;;3.55;;
4986;SDS011;12674;51.500;7.552;2023-08-06T05:01:35;5.43;;;3.20;;
4986;SDS011;12674;51.500;7.552;2023-08-06T05:03:37;4.90;;;3.67;;
4986;SDS011;12674;51.500;7.552;2023-08-06T05:05:40;5.55;;;2.95;;
4986;SDS011;12674;51.500;7.552;2023-08-06T05:07:43;8.60;;;3.63;;
4986;SDS011;12674;51.500;7.552;2023-08-06T05:09:45;6.97;;;3.63;;
4986;SDS011;12674;51.500;7.552;2023-08-06T05:11:48;5.93;;;3.50;;
4986;SDS011;12674;51.500;7.552;2023-08-06T05:13:52;5.30;;;3.17;;
4986;SDS011;12674;51.500;7.552;2023-08-06T05:15:55;5.75;;;2.97;;
4986;SDS011;12674;51.500;7.552;2023-08-06T05:17:58;4.38;;;3.50;;
4986;SDS011;12674;51.500;7.552;2023-08-06T05:20:01;4.40;;;2.80;;
4986;SDS011;12674;51.500;7.552;2023-08-06T05:22:04;4.75;;;3.10;;
4986;SDS011;12674;51.500;7.552;2023-08-06T05:24:07;5.22;;;3.35;;
4986;SDS011;12674;51.500;7.552;2023-08-06T05:26:10;4.15;;;2.72;;
4986;SDS011;12674;51.500;7.552;2023-08-06T05:28:12;3.47;;;3.10;;
4986;SDS011;12674;51.500;7.552;2023-08-06T05:30:17;4.78;;;3.08;;
4986;SDS011;12674;51.500;7.552;2023-08-06T05:32:20;5.20;;;2.75;;
4986;SDS011;12674;51.500;7.552;2023-08-06T05:34:22;3.45;;;2.80;;
4986;SDS011;12674;51.500;7.552;2023-08-06T05:36:26;5.55;;;2.92;;
4986;SDS011;12674;51.500;7.552;2023-08-06T05:38:30;4.85;;;2.63;;
4986;SDS011;12674;51.500;7.552;2023-08-06T05:40:33;6.10;;;2.40;;
4986;SDS011;12674;51.500;7.552;2023-08-06T05:42:36;3.67;;;2.90;;
4986;SDS011;12674;51.500;7.552;2023-08-06T05:44:39;6.55;;;3.00;;
4986;SDS011;12674;51.500;7.552;2023-08-06T05:46:43;12.30;;;2.67;;
4986;SDS011;12674;51.500;7.552;2023-08-06T05:48:48;3.25;;;2.47;;
4986;SDS011;12674;51.500;7.552;2023-08-06T05:50:52;2.30;;;2.20;;
4986;SDS011;12674;51.500;7.552;2023-08-06T05:52:55;8.45;;;2.92;;
4986;SDS011;12674;51.500;7.552;2023-08-06T05:55:02;5.82;;;1.98;;
4986;SDS011;12674;51.500;7.552;2023-08-06T05:57:05;4.20;;;2.22;;
4986;SDS011;12674;51.500;7.552;2023-08-06T05:59:08;13.93;;;2.03;;
4986;SDS011;12674;51.500;7.552;2023-08-06T06:01:11;2.00;;;1.90;;
4986;SDS011;12674;51.500;7.552;2023-08-06T06:03:16;3.42;;;2.10;;
4986;SDS011;12674;51.500;7.552;2023-08-06T06:05:19;3.63;;;2.08;;
4986;SDS011;12674;51.500;7.552;2023-08-06T06:07:22;4.13;;;1.95;;
4986;SDS011;12674;51.500;7.552;2023-08-06T06:09:25;12.70;;;2.50;;
4986;SDS011;12674;51.500;7.552;2023-08-06T06:11:28;6.03;;;2.42;;
4986;SDS011;12674;51.500;7.552;2023-08-06T06:13:31;3.22;;;1.80;;
4986;SDS011;12674;51.500;7.552;2023-08-06T06:15:34;2.35;;;1.63;;
4986;SDS011;12674;51.500;7.552;2023-08-06T06:17:37;1.98;;;1.77;;
4986;SDS011;12674;51.500;7.552;2023-08-06T06:19:42;2.58;;;1.90;;
4986;SDS011;12674;51.500;7.552;2023-08-06T06:21:45;8.32;;;2.35;;
4986;SDS011;12674;51.500;7.552;2023-08-06T06:23:48;4.78;;;2.03;;
4986;SDS011;12674;51.500;7.552;2023-08-06T06:25:52;4.35;;;1.83;;
4986;SDS011;12674;51.500;7.552;2023-08-06T06:27:56;1.80;;;1.60;;
4986;SDS011;12674;51.500;7.552;2023-08-06T06:30:00;4.85;;;1.92;;
4986;SDS011;12674;51.500;7.552;2023-08-06T06:32:03;5.00;;;2.03;;
4986;SDS011;12674;51.500;7.552;2023-08-06T06:34:07;11.30;;;2.17;;
4986;SDS011;12674;51.500;7.552;2023-08-06T06:36:11;9.77;;;1.98;;
4986;SDS011;12674;51.500;7.552;2023-08-06T06:38:14;4.30;;;1.98;;
4986;SDS011;12674;51.500;7.552;2023-08-06T06:40:17;4.03;;;1.80;;
4986;SDS011;12674;51.500;7.552;2023-08-06T06:42:19;4.25;;;1.85;;
4986;SDS011;12674;51.500;7.552;2023-08-06T06:44:25;4.97;;;1.70;;
4986;SDS011;12674;51.500;7.552;2023-08-06T06:46:29;2.85;;;1.77;;
4986;SDS011;12674;51.500;7.552;2023-08-06T06:48:32;3.33;;;2.05;;
4986;SDS011;12674;51.500;7.552;2023-08-06T06:50:35;3.58;;;1.90;;
4986;SDS011;12674;51.500;7.552;2023-08-06T06:52:41;4.82;;;1.83;;
4986;SDS011;12674;51.500;7.552;2023-08-06T06:54:44;3.25;;;1.70;;
4986;SDS011;12674;51.500;7.552;2023-08-06T06:56:47;4.30;;;1.95;;
4986;SDS011;12674;51.500;7.552;2023-08-06T06:58:50;2.67;;;1.80;;
4986;SDS011;12674;51.500;7.552;2023-08-06T07:00:53;2.53;;;1.65;;
4986;SDS011;12674;51.500;7.552;2023-08-06T07:02:56;4.10;;;1.65;;
4986;SDS011;12674;51.500;7.552;2023-08-06T07:05:00;2.97;;;1.70;;
4986;SDS011;12674;51.500;7.552;2023-08-06T07:07:03;2.75;;;1.63;;
4986;SDS011;12674;51.500;7.552;2023-08-06T07:09:08;3.72;;;1.58;;
4986;SDS011;12674;51.500;7.552;2023-08-06T07:11:11;2.35;;;1.77;;
4986;SDS011;12674;51.500;7.552;2023-08-06T07:13:14;4.28;;;1.98;;
4986;SDS011;12674;51.500;7.552;2023-08-06T07:15:18;6.22;;;2.17;;
4986;SDS011;12674;51.500;7.552;2023-08-06T07:17:21;2.67;;;1.50;;
4986;SDS011;12674;51.500;7.552;2023-08-06T07:19:24;1.60;;;1.50;;
4986;SDS011;12674;51.500;7.552;2023-08-06T07:21:27;7.50;;;1.50;;
4986;SDS011;12674;51.500;7.552;2023-08-06T07:23:30;3.75;;;1.60;;
4986;SDS011;12674;51.500;7.552;2023-08-06T07:25:34;4.18;;;1.70;;
4986;SDS011;12674;51.500;7.552;2023-08-06T07:27:37;1.90;;;1.50;;
4986;SDS011;12674;51.500;7.552;2023-08-06T07:29:40;4.72;;;2.13;;
4986;SDS011;12674;51.500;7.552;2023-08-06T07:31:43;4.05;;;1.70;;
4986;SDS011;12674;51.500;7.552;2023-08-06T07:33:46;4.93;;;1.90;;
4986;SDS011;12674;51.500;7.552;2023-08-06T07:35:49;2.13;;;1.90;;
4986;SDS011;12674;51.500;7.552;2023-08-06T07:37:53;3.75;;;1.88;;
4986;SDS011;12674;51.500;7.552;2023-08-06T07:39:56;5.53;;;1.50;;
4986;SDS011;12674;51.500;7.552;2023-08-06T07:42:00;7.03;;;1.90;;
4986;SDS011;12674;51.500;7.552;2023-08-06T07:44:04;4.50;;;2.10;;
4986;SDS011;12674;51.500;7.552;2023-08-06T07:46:07;2.50;;;1.65;;
4986;SDS011;12674;51.500;7.552;2023-08-06T07:48:10;4.72;;;1.75;;
4986;SDS011;12674;51.500;7.552;2023-08-06T07:50:13;12.77;;;2.60;;
4986;SDS011;12674;51.500;7.552;2023-08-06T07:52:15;4.35;;;2.10;;
4986;SDS011;12674;51.500;7.552;2023-08-06T07:54:18;4.90;;;1.83;;
4986;SDS011;12674;51.500;7.552;2023-08-06T07:56:21;3.35;;;1.70;;
4986;SDS011;12674;51.500;7.552;2023-08-06T07:58:25;4.60;;;1.92;;
4986;SDS011;12674;51.500;7.552;2023-08-06T08:00:28;5.05;;;1.90;;
4986;SDS011;12674;51.500;7.552;2023-08-06T08:02:31;2.95;;;1.80;;
4986;SDS011;12674;51.500;7.552;2023-08-06T08:04:34;5.90;;;1.60;;
4986;SDS011;12674;51.500;7.552;2023-08-06T08:06:36;3.35;;;1.55;;
4986;SDS011;12674;51.500;7.552;2023-08-06T08:08:39;4.55;;;1.88;;
4986;SDS011;12674;51.500;7.552;2023-08-06T08:10:42;5.18;;;1.92;;
4986;SDS011;12674;51.500;7.552;2023-08-06T08:12:45;9.70;;;2.28;;
4986;SDS011;12674;51.500;7.552;2023-08-06T08:14:50;3.75;;;2.03;;
4986;SDS011;12674;51.500;7.552;2023-08-06T08:16:53;4.78;;;2.50;;
4986;SDS011;12674;51.500;7.552;2023-08-06T08:18:56;8.18;;;2.60;;
4986;SDS011;12674;51.500;7.552;2023-08-06T08:20:59;5.15;;;2.65;;
4986;SDS011;12674;51.500;7.552;2023-08-06T08:23:02;10.77;;;2.72;;
4986;SDS011;12674;51.500;7.552;2023-08-06T08:25:05;7.90;;;3.00;;
4986;SDS011;12674;51.500;7.552;2023-08-06T08:27:08;3.45;;;2.67;;
4986;SDS011;12674;51.500;7.552;2023-08-06T08:29:11;7.53;;;3.20;;
4986;SDS011;12674;51.500;7.552;2023-08-06T08:31:15;8.88;;;2.15;;
4986;SDS011;12674;51.500;7.552;2023-08-06T08:33:18;2.83;;;2.10;;
4986;SDS011;12674;51.500;7.552;2023-08-06T08:35:21;7.80;;;2.22;;
4986;SDS011;12674;51.500;7.552;2023-08-06T08:37:24;4.75;;;2.20;;
4986;SDS011;12674;51.500;7.552;2023-08-06T08:39:27;3.88;;;1.83;;
4986;SDS011;12674;51.500;7.552;2023-08-06T08:41:30;4.70;;;2.38;;
4986;SDS011;12674;51.500;7.552;2023-08-06T08:43:33;4.65;;;2.33;;
4986;SDS011;12674;51.500;7.552;2023-08-06T08:45:36;6.20;;;2.30;;
4986;SDS011;12674;51.500;7.552;2023-08-06T08:47:43;8.13;;;2.97;;
4986;SDS011;12674;51.500;7.552;2023-08-06T08:49:48;6.15;;;2.97;;
4986;SDS011;12674;51.500;7.552;2023-08-06T08:51:52;5.28;;;2.05;;
4986;SDS011;12674;51.500;7.552;2023-08-06T08:53:56;6.32;;;2.33;;
4986;SDS011;12674;51.500;7.552;2023-08-06T08:55:59;4.03;;;2.25;;
4986;SDS011;12674;51.500;7.552;2023-08-06T08:58:02;3.90;;;2.10;;
4986;SDS011;12674;51.500;7.552;2023-08-06T09:00:06;6.45;;;2.72;;
4986;SDS011;12674;51.500;7.552;2023-08-06T09:02:10;4.88;;;2.22;;
4986;SDS011;12674;51.500;7.552;2023-08-06T09:04:15;7.30;;;2.45;;
4986;SDS011;12674;51.500;7.552;2023-08-06T09:06:19;2.85;;;2.22;;
4986;SDS011;12674;51.500;7.552;2023-08-06T09:08:24;7.38;;;2.25;;
4986;SDS011;12674;51.500;7.552;2023-08-06T09:10:29;2.42;;;1.75;;
4986;SDS011;12674;51.500;7.552;2023-08-06T09:12:33;4.05;;;2.05;;
4986;SDS011;12674;51.500;7.552;2023-08-06T09:14:36;3.97;;;2.05;;
4986;SDS011;12674;51.500;7.552;2023-08-06T09:16:39;1.70;;;1.52;;
4986;SDS011;12674;51.500;7.552;2023-08-06T09:18:42;2.53;;;1.83;;
4986;SDS011;12674;51.500;7.552;2023-08-06T09:20:48;3.15;;;2.00;;
4986;SDS011;12674;51.500;7.552;2023-08-06T09:22:52;9.65;;;2.60;;
4986;SDS011;12674;51.500;7.552;2023-08-06T09:24:55;6.85;;;2.38;;
4986;SDS011;12674;51.500;7.552;2023-08-06T09:26:58;4.10;;;2.20;;
4986;SDS011;12674;51.500;7.552;2023-08-06T09:29:05;4.75;;;2.25;;
4986;SDS011;12674;51.500;7.552;2023-08-06T09:31:09;4.07;;;2.05;;
4986;SDS011;12674;51.500;7.552;2023-08-06T09:33:14;6.13;;;2.65;;
4986;SDS011;12674;51.500;7.552;2023-08-06T09:35:20;4.70;;;2.50;;
4986;SDS011;12674;51.500;7.552;2023-08-06T09:37:27;4.90;;;2.42;;
4986;SDS011;12674;51.500;7.552;2023-08-06T09:39:38;4.03;;;2.17;;
4986;SDS011;12674;51.500;7.552;2023-08-06T09:41:42;6.78;;;2.05;;
4986;SDS011;12674;51.500;7.552;2023-08-06T09:43:46;3.22;;;1.90;;
4986;SDS011;12674;51.500;7.552;2023-08-06T09:45:49;3.67;;;2.08;;
4986;SDS011;12674;51.500;7.552;2023-08-06T09:47:52;7.10;;;1.95;;
4986;SDS011;12674;51.500;7.552;2023-08-06T09:49:58;3.83;;;1.70;;
4986;SDS011;12674;51.500;7.552;2023-08-06T09:52:01;3.67;;;2.15;;
4986;SDS011;12674;51.500;7.552;2023-08-06T09:54:07;7.65;;;1.95;;
4986;SDS011;12674;51.500;7.552;2023-08-06T09:56:27;3.10;;;1.70;;
4986;SDS011;12674;51.500;7.552;2023-08-06T09:58:32;4.80;;;2.40;;
4986;SDS011;12674;51.500;7.552;2023-08-06T10:00:36;6.65;;;4.18;;
4986;SDS011;12674;51.500;7.552;2023-08-06T10:02:40;9.45;;;3.83;;
4986;SDS011;12674;51.500;7.552;2023-08-06T10:04:44;4.78;;;3.50;;
4986;SDS011;12674;51.500;7.552;2023-08-06T10:06:56;6.03;;;3.60;;
4986;SDS011;12674;51.500;7.552;2023-08-06T10:08:59;11.38;;;4.57;;
4986;SDS011;12674;51.500;7.552;2023-08-06T10:11:03;7.80;;;4.97;;
4986;SDS011;12674;51.500;7.552;2023-08-06T10:13:07;11.10;;;7.10;;
4986;SDS011;12674;51.500;7.552;2023-08-06T10:15:12;7.20;;;6.47;;
4986;SDS011;12674;51.500;7.552;2023-08-06T10:17:16;7.55;;;5.75;;
4986;SDS011;12674;51.500;7.552;2023-08-06T10:19:19;11.18;;;5.85;;
4986;SDS011;12674;51.500;7.552;2023-08-06T10:21:23;10.20;;;6.13;;
4986;SDS011;12674;51.500;7.552;2023-08-06T10:23:35;7.72;;;5.20;;
4986;SDS011;12674;51.500;7.552;2023-08-06T10:25:40;9.48;;;6.05;;
4986;SDS011;12674;51.500;7.552;2023-08-06T10:27:53;9.75;;;6.30;;
4986;SDS011;12674;51.500;7.552;2023-08-06T10:34:56;10.85;;;5.00;;
4986;SDS011;12674;51.500;7.552;2023-08-06T10:37:02;10.82;;;5.05;;
4986;SDS011;12674;51.500;7.552;2023-08-06T10:39:05;7.80;;;4.53;;
4986;SDS011;12674;51.500;7.552;2023-08-06T10:41:17;5.97;;;4.47;;
4986;SDS011;12674;51.500;7.552;2023-08-06T10:43:26;8.18;;;4.47;;
4986;SDS011;12674;51.500;7.552;2023-08-06T10:45:30;13.05;;;4.75;;
4986;SDS011;12674;51.500;7.552;2023-08-06T10:47:37;5.60;;;4.03;;
4986;SDS011;12674;51.500;7.552;2023-08-06T10:49:44;5.53;;;3.63;;
4986;SDS011;12674;51.500;7.552;2023-08-06T10:51:48;4.75;;;3.20;;
4986;SDS011;12674;51.500;7.552;2023-08-06T10:53:51;5.53;;;3.70;;
4986;SDS011;12674;51.500;7.552;2023-08-06T10:55:54;5.35;;;3.90;;
4986;SDS011;12674;51.500;7.552;2023-08-06T10:57:56;6.90;;;4.25;;
4986;SDS011;12674;51.500;7.552;2023-08-06T11:00:03;9.45;;;3.75;;
4986;SDS011;12674;51.500;7.552;2023-08-06T11:02:17;6.30;;;3.45;;
4986;SDS011;12674;51.500;7.552;2023-08-06T11:04:20;5.95;;;3.25;;
4986;SDS011;12674;51.500;7.552;2023-08-06T11:06:24;4.05;;;2.60;;
4986;SDS011;12674;51.500;7.552;2023-08-06T11:08:29;3.25;;;2.47;;
4986;SDS011;12674;51.500;7.552;2023-08-06T11:10:37;5.68;;;2.35;;
4986;SDS011;12674;51.500;7.552;2023-08-06T11:12:54;4.82;;;2.30;;
4986;SDS011;12674;51.500;7.552;2023-08-06T11:14:57;5.00;;;2.50;;
4986;SDS011;12674;51.500;7.552;2023-08-06T11:17:01;2.88;;;2.38;;
4986;SDS011;12674;51.500;7.552;2023-08-06T11:19:07;5.93;;;3.08;;
4986;SDS011;12674;51.500;7.552;2023-08-06T11:21:10;5.53;;;2.65;;
4986;SDS011;12674;51.500;7.552;2023-08-06T11:23:13;5.70;;;2.35;;
4986;SDS011;12674;51.500;7.552;2023-08-06T11:25:19;2.78;;;1.77;;
4986;SDS011;12674;51.500;7.552;2023-08-06T11:27:23;2.72;;;1.70;;
4986;SDS011;12674;51.500;7.552;2023-08-06T11:29:28;2.83;;;1.90;;
4986;SDS011;12674;51.500;7.552;2023-08-06T11:31:30;6.55;;;2.20;;
4986;SDS011;12674;51.500;7.552;2023-08-06T11:33:35;2.45;;;2.03;;
4986;SDS011;12674;51.500;7.552;2023-08-06T11:35:38;3.45;;;1.60;;
4986;SDS011;12674;51.500;7.552;2023-08-06T11:37:43;2.95;;;2.08;;
4986;SDS011;12674;51.500;7.552;2023-08-06T11:39:46;4.20;;;2.03;;
4986;SDS011;12674;51.500;7.552;2023-08-06T11:41:50;3.15;;;1.88;;
4986;SDS011;12674;51.500;7.552;2023-08-06T11:43:54;5.10;;;2.85;;
4986;SDS011;12674;51.500;7.552;2023-08-06T11:45:56;5.63;;;2.40;;
4986;SDS011;12674;51.500;7.552;2023-08-06T11:47:59;3.80;;;2.10;;
4986;SDS011;12674;51.500;7.552;2023-08-06T11:50:04;5.75;;;2.05;;
4986;SDS011;12674;51.500;7.552;2023-08-06T11:52:17;3.67;;;1.88;;
4986;SDS011;12674;51.500;7.552;2023-08-06T11:54:30;10.32;;;2.00;;
4986;SDS011;12674;51.500;7.552;2023-08-06T11:56:35;2.42;;;1.67;;
4986;SDS011;12674;51.500;7.552;2023-08-06T11:58:40;4.03;;;2.47;;
4986;SDS011;12674;51.500;7.552;2023-08-06T12:00:43;7.75;;;2.10;;
4986;SDS011;12674;51.500;7.552;2023-08-06T12:02:46;2.15;;;1.83;;
4986;SDS011;12674;51.500;7.552;2023-08-06T12:04:56;5.90;;;2.50;;
4986;SDS011;12674;51.500;7.552;2023-08-06T12:07:07;6.78;;;2.00;;
4986;SDS011;12674;51.500;7.552;2023-08-06T12:09:10;3.72;;;1.83;;
4986;SDS011;12674;51.500;7.552;2023-08-06T12:11:13;2.28;;;1.63;;
4986;SDS011;12674;51.500;7.552;2023-08-06T12:13:16;3.75;;;1.80;;
4986;SDS011;12674;51.500;7.552;2023-08-06T12:15:20;3.35;;;1.75;;
4986;SDS011;12674;51.500;7.552;2023-08-06T12:17:23;9.35;;;1.95;;
4986;SDS011;12674;51.500;7.552;2023-08-06T12:19:25;3.35;;;1.60;;
4986;SDS011;12674;51.500;7.552;2023-08-06T12:21:28;8.40;;;1.67;;
4986;SDS011;12674;51.500;7.552;2023-08-06T12:23:33;9.05;;;1.80;;
4986;SDS011;12674;51.500;7.552;2023-08-06T12:25:36;3.83;;;1.67;;
4986;SDS011;12674;51.500;7.552;2023-08-06T12:27:39;3.75;;;1.50;;
4986;SDS011;12674;51.500;7.552;2023-08-06T12:29:42;4.38;;;1.90;;
4986;SDS011;12674;51.500;7.552;2023-08-06T12:31:45;7.10;;;1.65;;
4986;SDS011;12674;51.500;7.552;2023-08-06T12:33:48;3.05;;;1.80;;
4986;SDS011;12674;51.500;7.552;2023-08-06T12:35:51;12.73;;;2.28;;
4986;SDS011;12674;51.500;7.552;2023-08-06T12:37:55;3.30;;;1.95;;
4986;SDS011;12674;51.500;7.552;2023-08-06T12:40:00;7.05;;;2.25;;
4986;SDS011;12674;51.500;7.552;2023-08-06T12:42:23;3.35;;;2.40;;
4986;SDS011;12674;51.500;7.552;2023-08-06T12:44:27;2.70;;;2.05;;